Time;durP1;ratioP1;P1;durP2;ratioP2;P2;SDS_P1;SDS_P2;PMS_P1;PMS_P2;Temp;Humidity;BMP_temperature;BMP_pressure;BME280_temperature;BME280_humidity;BME280_pressure;Samples;Min_cycle;Max_cycle;Signal;HPM_P1;HPM_P2
2022/08/09 00:01:47;;;;;;;;;;;;;;;16.65;64.11;101455.00;5109112;28;20003;-74
2022/08/09 00:04:50;;;;;;;;;;;;;;;16.59;64.19;101457.19;5108975;28;19972;-74
2022/08/09 00:07:53;;;;;;;;;;;;;;;16.59;63.90;101454.53;5110367;28;19934;-74
2022/08/09 00:10:57;;;;;;;;;;;;;;;16.48;63.87;101452.56;5113048;28;20277;-73
2022/08/09 00:14:02;;;;;;;;;;;;;;;16.40;64.49;101449.56;5099879;28;20027;-74
2022/08/09 00:17:05;;;;;;;;;;;;;;;16.37;64.91;101455.03;5112890;28;19930;-74
2022/08/09 00:20:09;;;;;;;;;;;;;;;16.49;64.24;101449.81;5113171;28;19961;-74
2022/08/09 00:23:12;;;;;;;;;;;;;;;16.33;64.56;101449.09;5088926;28;20650;-74
2022/08/09 00:26:15;;;;;;;;;;;;;;;16.39;64.35;101461.06;5112415;28;19918;-74
2022/08/09 00:29:18;;;;;;;;;;;;;;;16.24;64.92;101455.81;5112391;28;20479;-74
2022/08/09 00:32:22;;;;;;;;;;;;;;;16.22;65.27;101452.41;5112383;28;19919;-74
2022/08/09 00:35:26;;;;;;;;;;;;;;;16.19;65.34;101455.22;5112427;28;20426;-73
2022/08/09 00:38:31;;;;;;;;;;;;;;;16.06;65.36;101445.50;5112853;28;19946;-74
2022/08/09 00:41:34;;;;;;;;;;;;;;;16.08;65.46;101449.75;5112331;28;20439;-74
2022/08/09 00:44:37;;;;;;;;;;;;;;;15.97;66.07;101453.03;5112134;28;20006;-74
2022/08/09 00:47:40;;;;;;;;;;;;;;;16.07;65.78;101455.13;5112028;28;19919;-74
2022/08/09 00:50:43;;;;;;;;;;;;;;;15.96;66.48;101451.34;5112069;28;19919;-74
2022/08/09 00:53:47;;;;;;;;;;;;;;;15.92;66.43;101448.97;5112246;28;19934;-75
2022/08/09 00:56:53;;;;;;;;;;;;;;;15.90;66.10;101450.88;5100020;28;20401;-75
2022/08/09 00:59:56;;;;;;;;;;;;;;;15.93;66.22;101455.97;5112754;28;19917;-74
2022/08/09 01:03:10;;;;;;;;;;;;;;;15.81;66.95;101452.25;5111086;28;20116;-74
2022/08/09 01:06:16;;;;;;;;;;;;;;;15.73;66.80;101465.91;5112021;28;20403;-73
2022/08/09 01:09:35;;;;;;;;;;;;;;;15.65;66.88;101461.97;5112266;28;19922;-72
2022/08/09 01:12:54;;;;;;;;;;;;;;;15.54;67.46;101460.81;5111868;28;19918;-73
2022/08/09 01:15:59;;;;;;;;;;;;;;;15.56;67.19;101463.34;5111239;28;19926;-72
2022/08/09 01:19:22;;;;;;;;;;;;;;;15.55;67.14;101457.25;5111378;28;19918;-72
2022/08/09 01:22:31;;;;;;;;;;;;;;;15.55;66.70;101461.66;5111346;28;19961;-72
2022/08/09 01:25:35;;;;;;;;;;;;;;;15.43;66.95;101463.22;5111896;28;20572;-72
2022/08/09 01:28:41;;;;;;;;;;;;;;;15.37;67.70;101460.94;5098588;28;20336;-72
2022/08/09 01:31:45;;;;;;;;;;;;;;;15.38;68.05;101460.03;5111036;28;19918;-72
2022/08/09 01:34:50;;;;;;;;;;;;;;;15.42;67.92;101455.41;5111332;28;19934;-73
2022/08/09 01:37:54;;;;;;;;;;;;;;;15.37;68.12;101454.81;5110956;28;19934;-72
2022/08/09 01:41:00;;;;;;;;;;;;;;;15.31;68.27;101461.28;5111560;28;19960;-72
2022/08/09 01:44:04;;;;;;;;;;;;;;;15.29;67.99;101456.13;5111618;28;20387;-72
2022/08/09 01:47:09;;;;;;;;;;;;;;;15.29;68.45;101463.19;5111442;28;19919;-72
2022/08/09 01:50:12;;;;;;;;;;;;;;;15.09;69.05;101462.53;5111295;28;19941;-72
2022/08/09 01:53:18;;;;;;;;;;;;;;;15.05;68.98;101458.34;5110759;28;19949;-71
2022/08/09 01:56:22;;;;;;;;;;;;;;;15.11;69.28;101458.00;5110832;28;19969;-72
2022/08/09 01:59:27;;;;;;;;;;;;;;;14.97;69.33;101457.09;5110760;28;20509;-72
2022/08/09 02:02:32;;;;;;;;;;;;;;;14.85;69.85;101466.50;5110717;28;19950;-72
2022/08/09 02:05:38;;;;;;;;;;;;;;;14.98;69.51;101461.41;5090721;28;19915;-73
2022/08/09 02:08:42;;;;;;;;;;;;;;;14.86;69.44;101466.41;5078479;28;20048;-73
2022/08/09 02:11:45;;;;;;;;;;;;;;;15.02;69.32;101463.78;5090755;28;19938;-73
2022/08/09 02:14:50;;;;;;;;;;;;;;;14.89;69.88;101462.75;5090355;28;19957;-72
2022/08/09 02:17:54;;;;;;;;;;;;;;;15.01;69.26;101469.16;5089705;28;20331;-73
2022/08/09 02:20:58;;;;;;;;;;;;;;;14.88;69.92;101467.19;5090036;28;19918;-73
2022/08/09 02:24:04;;;;;;;;;;;;;;;14.81;69.69;101472.88;5089836;28;19919;-72
2022/08/09 02:27:08;;;;;;;;;;;;;;;14.82;69.61;101471.94;5090230;28;20352;-72
2022/08/09 02:30:13;;;;;;;;;;;;;;;14.78;69.85;101470.44;5089981;28;19923;-72
2022/08/09 02:33:18;;;;;;;;;;;;;;;14.68;70.41;101469.19;5090240;28;19965;-72
2022/08/09 02:36:26;;;;;;;;;;;;;;;14.74;70.12;101468.88;5089730;28;19923;-72
2022/08/09 02:39:33;;;;;;;;;;;;;;;14.68;70.34;101466.56;5089710;28;19919;-72
2022/08/09 02:42:38;;;;;;;;;;;;;;;14.61;70.71;101468.69;5089229;28;20018;-72
2022/08/09 02:45:42;;;;;;;;;;;;;;;14.49;71.12;101471.97;5089696;28;20422;-72
2022/08/09 02:48:46;;;;;;;;;;;;;;;14.51;70.93;101472.75;5089401;28;19961;-72
2022/08/09 02:51:52;;;;;;;;;;;;;;;14.57;70.76;101473.28;5089397;28;20392;-72
2022/08/09 02:54:56;;;;;;;;;;;;;;;14.42;71.42;101468.78;5089554;28;19995;-72
2022/08/09 02:57:59;;;;;;;;;;;;;;;14.51;71.12;101470.97;5090049;28;20010;-72
2022/08/09 03:01:04;;;;;;;;;;;;;;;14.39;71.45;101472.47;5089834;28;19966;-72
2022/08/09 03:04:09;;;;;;;;;;;;;;;14.18;72.07;101463.06;5089152;28;20589;-72
2022/08/09 03:07:13;;;;;;;;;;;;;;;14.21;72.27;101467.31;5088914;28;20499;-72
2022/08/09 03:10:16;;;;;;;;;;;;;;;14.23;71.75;101470.69;5087441;28;19919;-72
2022/08/09 03:13:21;;;;;;;;;;;;;;;14.28;71.66;101471.31;5075875;28;19955;-72
2022/08/09 03:16:24;;;;;;;;;;;;;;;14.11;72.29;101474.84;5089259;28;19927;-72
2022/08/09 03:19:29;;;;;;;;;;;;;;;14.19;72.00;101473.50;5089223;28;19962;-72
2022/08/09 03:22:36;;;;;;;;;;;;;;;14.28;71.88;101476.56;5089486;28;19989;-72
2022/08/09 03:25:41;;;;;;;;;;;;;;;14.30;71.66;101475.56;5089393;28;20021;-72
2022/08/09 03:28:45;;;;;;;;;;;;;;;14.32;71.60;101472.84;5076493;28;20035;-73
2022/08/09 03:31:48;;;;;;;;;;;;;;;14.12;72.35;101482.63;5088510;28;19934;-72
2022/08/09 03:34:52;;;;;;;;;;;;;;;14.08;72.40;101490.78;5088658;28;19950;-73
2022/08/09 03:37:55;;;;;;;;;;;;;;;13.86;73.39;101493.66;5076619;28;20277;-72
2022/08/09 03:40:58;;;;;;;;;;;;;;;13.87;73.08;101497.97;5089376;28;20343;-72
2022/08/09 03:44:01;;;;;;;;;;;;;;;13.85;73.00;101495.44;5052569;28;20506;-71
2022/08/09 03:47:05;;;;;;;;;;;;;;;13.88;73.11;101503.16;5052963;28;19919;-72
2022/08/09 03:50:09;;;;;;;;;;;;;;;13.93;72.42;101501.13;5052766;28;20340;-72
2022/08/09 03:53:12;;;;;;;;;;;;;;;13.90;72.88;101492.56;5052626;28;20006;-71
2022/08/09 03:56:16;;;;;;;;;;;;;;;13.85;73.16;101503.31;5052796;28;19923;-72
2022/08/09 03:59:19;;;;;;;;;;;;;;;13.76;73.27;101498.53;5053206;28;19919;-72
2022/08/09 04:02:27;;;;;;;;;;;;;;;13.67;73.78;101502.44;5052182;28;19977;-72
2022/08/09 04:05:31;;;;;;;;;;;;;;;13.76;73.30;101502.94;5051533;28;19967;-72
2022/08/09 04:08:34;;;;;;;;;;;;;;;13.64;73.52;101507.84;5052298;28;20017;-72
2022/08/09 04:11:58;;;;;;;;;;;;;;;13.61;73.99;101513.25;5051593;28;19966;-72
2022/08/09 04:15:01;;;;;;;;;;;;;;;13.59;73.95;101509.88;5051127;28;19963;-72
2022/08/09 04:18:05;;;;;;;;;;;;;;;13.57;73.95;101516.13;5050622;28;19966;-72
2022/08/09 04:21:10;;;;;;;;;;;;;;;13.42;74.47;101518.56;5051277;28;20008;-73
2022/08/09 04:24:13;;;;;;;;;;;;;;;13.59;73.87;101520.38;5052207;28;19920;-73
2022/08/09 04:27:16;;;;;;;;;;;;;;;13.67;73.98;101528.72;5050998;28;19975;-73
2022/08/09 04:30:21;;;;;;;;;;;;;;;13.55;74.33;101524.06;5051998;28;19924;-73
2022/08/09 04:33:24;;;;;;;;;;;;;;;13.70;74.01;101533.84;5050913;28;19919;-73
2022/08/09 04:36:29;;;;;;;;;;;;;;;13.64;73.70;101526.25;5057597;28;20268;-73
2022/08/09 04:39:32;;;;;;;;;;;;;;;13.87;73.22;101537.41;5067788;28;19942;-73
2022/08/09 04:42:36;;;;;;;;;;;;;;;13.84;73.25;101537.56;5092617;28;20288;-73
2022/08/09 04:45:40;;;;;;;;;;;;;;;13.48;74.55;101549.78;5108997;28;19919;-73
2022/08/09 04:48:43;;;;;;;;;;;;;;;13.48;75.17;101548.94;5097819;28;19918;-73
2022/08/09 04:51:46;;;;;;;;;;;;;;;13.54;74.62;101543.41;5098335;28;20437;-73
2022/08/09 04:54:50;;;;;;;;;;;;;;;13.55;74.78;101539.84;5110966;28;19954;-72
2022/08/09 04:57:53;;;;;;;;;;;;;;;13.59;74.40;101546.66;5111489;28;19938;-73
2022/08/09 05:00:57;;;;;;;;;;;;;;;13.69;74.29;101547.06;5111543;28;19945;-73
2022/08/09 05:03:59;;;;;;;;;;;;;;;13.67;74.17;101552.38;5111519;28;20010;-73
2022/08/09 05:07:02;;;;;;;;;;;;;;;13.89;73.30;101559.22;5111563;28;19919;-72
2022/08/09 05:10:06;;;;;;;;;;;;;;;14.11;72.18;101554.59;5112261;28;20022;-72
2022/08/09 05:13:09;;;;;;;;;;;;;;;14.15;72.08;101560.53;5111533;28;20015;-72
2022/08/09 05:16:12;;;;;;;;;;;;;;;14.02;72.34;101568.19;5111086;28;19940;-72
2022/08/09 05:19:20;;;;;;;;;;;;;;;13.95;73.08;101565.03;5111046;28;19918;-73
2022/08/09 05:22:23;;;;;;;;;;;;;;;14.16;71.63;101564.84;5111068;28;19917;-73
2022/08/09 05:25:26;;;;;;;;;;;;;;;14.24;71.44;101567.13;5111216;28;19935;-71
2022/08/09 05:28:30;;;;;;;;;;;;;;;14.36;70.61;101564.72;5088462;28;20447;-65
2022/08/09 05:31:34;;;;;;;;;;;;;;;14.24;71.11;101567.97;5090215;28;19919;-64
2022/08/09 05:34:37;;;;;;;;;;;;;;;14.35;70.89;101570.03;5089886;28;19954;-64
2022/08/09 05:37:40;;;;;;;;;;;;;;;14.66;69.46;101569.31;5089377;28;19923;-64
2022/08/09 05:40:43;;;;;;;;;;;;;;;14.91;68.72;101571.50;5089728;28;19918;-65
2022/08/09 05:43:46;;;;;;;;;;;;;;;15.10;68.52;101576.63;5089176;28;20334;-64
2022/08/09 05:46:50;;;;;;;;;;;;;;;15.13;69.30;101578.25;5090117;28;19934;-65
2022/08/09 05:49:54;;;;;;;;;;;;;;;15.18;68.72;101581.47;5089933;28;19919;-64
2022/08/09 05:52:57;;;;;;;;;;;;;;;15.25;68.51;101569.66;5089224;28;20128;-64
2022/08/09 05:56:00;;;;;;;;;;;;;;;15.36;68.30;101572.56;5088717;28;19957;-64
2022/08/09 05:59:03;;;;;;;;;;;;;;;15.33;68.02;101581.47;5088983;28;19964;-64
2022/08/09 06:02:06;;;;;;;;;;;;;;;15.40;67.55;101579.34;5089314;28;19934;-64
2022/08/09 06:05:10;;;;;;;;;;;;;;;15.41;67.60;101581.06;5088738;28;21186;-70
2022/08/09 06:08:13;;;;;;;;;;;;;;;15.32;68.06;101586.84;5089848;28;20340;-70
2022/08/09 06:11:17;;;;;;;;;;;;;;;15.23;68.71;101587.34;5088662;28;20136;-70
2022/08/09 06:14:21;;;;;;;;;;;;;;;15.46;68.07;101588.72;5088741;28;19935;-72
2022/08/09 06:17:25;;;;;;;;;;;;;;;15.63;66.91;101580.69;5087638;28;19969;-71
2022/08/09 06:20:28;;;;;;;;;;;;;;;15.79;66.36;101580.69;5089096;28;20443;-70
2022/08/09 06:23:33;;;;;;;;;;;;;;;15.88;66.66;101579.34;5089727;28;20039;-68
2022/08/09 06:26:40;;;;;;;;;;;;;;;15.96;66.71;101583.22;5089205;28;20570;-70
2022/08/09 06:29:44;;;;;;;;;;;;;;;16.11;66.05;101584.09;5110069;28;19923;-70
2022/08/09 06:32:50;;;;;;;;;;;;;;;16.30;65.60;101581.22;5096329;28;20277;-70
2022/08/09 06:35:53;;;;;;;;;;;;;;;16.38;65.65;101584.28;5087997;28;19962;-70
2022/08/09 06:38:56;;;;;;;;;;;;;;;16.44;65.71;101583.06;5088597;28;20357;-67
2022/08/09 06:41:59;;;;;;;;;;;;;;;16.64;65.15;101584.50;5096020;28;20354;-70
2022/08/09 06:45:02;;;;;;;;;;;;;;;16.80;64.83;101585.28;5081970;28;20303;-70
2022/08/09 06:48:06;;;;;;;;;;;;;;;16.89;65.06;101582.06;5095008;28;20123;-70
2022/08/09 06:51:10;;;;;;;;;;;;;;;16.95;65.40;101586.97;5099528;27;19919;-69
2022/08/09 06:54:14;;;;;;;;;;;;;;;17.06;65.43;101583.66;5112286;27;19972;-69
2022/08/09 06:57:17;;;;;;;;;;;;;;;17.12;64.55;101575.34;5115912;27;20308;-69
2022/08/09 07:00:20;;;;;;;;;;;;;;;17.32;64.07;101582.00;5100991;27;19919;-68
2022/08/09 07:03:24;;;;;;;;;;;;;;;17.48;63.78;101575.75;5088816;28;19934;-69
2022/08/09 07:06:27;;;;;;;;;;;;;;;17.59;63.36;101583.84;5088733;28;19997;-69
2022/08/09 07:09:30;;;;;;;;;;;;;;;17.70;63.50;101576.03;5088307;28;19919;-69
2022/08/09 07:12:34;;;;;;;;;;;;;;;17.79;63.16;101579.91;5087619;28;19931;-69
2022/08/09 07:15:36;;;;;;;;;;;;;;;17.86;62.92;101576.75;5086824;28;19919;-69
2022/08/09 07:18:39;;;;;;;;;;;;;;;18.04;61.89;101579.16;5075345;28;19970;-69
2022/08/09 07:21:44;;;;;;;;;;;;;;;18.26;61.33;101574.09;5088373;28;20021;-71
2022/08/09 07:24:47;;;;;;;;;;;;;;;18.51;57.89;101575.06;5088020;28;19919;-72
2022/08/09 07:27:50;;;;;;;;;;;;;;;18.66;56.98;101570.50;5087285;28;19919;-69
2022/08/09 07:30:53;;;;;;;;;;;;;;;18.75;55.75;101572.53;5087312;28;19938;-70
2022/08/09 07:33:58;;;;;;;;;;;;;;;18.83;55.29;101577.31;5087282;28;19961;-69
2022/08/09 07:37:00;;;;;;;;;;;;;;;18.93;55.46;101578.34;5087961;28;19970;-70
2022/08/09 07:40:03;;;;;;;;;;;;;;;19.10;55.21;101579.81;5088217;28;20269;-71
2022/08/09 07:43:07;;;;;;;;;;;;;;;19.16;54.70;101584.66;5087520;28;19927;-70
2022/08/09 07:46:10;;;;;;;;;;;;;;;19.26;54.60;101577.75;5074878;28;19938;-70
2022/08/09 07:49:13;;;;;;;;;;;;;;;19.32;54.31;101571.16;5086928;28;20095;-70
2022/08/09 07:52:17;;;;;;;;;;;;;;;19.40;53.99;101567.00;5087526;28;20388;-70
2022/08/09 07:55:20;;;;;;;;;;;;;;;19.58;53.21;101561.28;5088283;28;19922;-70
2022/08/09 07:58:23;;;;;;;;;;;;;;;19.63;53.09;101556.50;5088209;28;19938;-70
2022/08/09 08:01:26;;;;;;;;;;;;;;;19.75;52.63;101555.63;5087362;28;19919;-71
2022/08/09 08:04:29;;;;;;;;;;;;;;;19.81;52.86;101559.59;5087005;28;20341;-70
2022/08/09 08:07:32;;;;;;;;;;;;;;;19.94;52.81;101560.38;5087109;28;20325;-70
2022/08/09 08:10:35;;;;;;;;;;;;;;;20.02;51.80;101563.31;5087290;28;20359;-69
2022/08/09 08:13:38;;;;;;;;;;;;;;;20.00;51.85;101562.56;5088021;28;20273;-69
2022/08/09 08:16:42;;;;;;;;;;;;;;;20.07;51.87;101554.97;5087753;28;20423;-70
2022/08/09 08:19:45;;;;;;;;;;;;;;;20.18;50.79;101547.91;5087166;28;19923;-70
2022/08/09 08:22:48;;;;;;;;;;;;;;;20.28;50.99;101556.00;5086982;28;19938;-70
2022/08/09 08:25:51;;;;;;;;;;;;;;;20.26;50.79;101549.09;5087114;28;19930;-70
2022/08/09 08:28:54;;;;;;;;;;;;;;;20.51;49.91;101554.25;5089265;28;19965;-69
2022/08/09 08:31:57;;;;;;;;;;;;;;;20.72;49.20;101550.88;5092264;28;19923;-69
2022/08/09 08:35:01;;;;;;;;;;;;;;;20.88;48.77;101546.03;5092423;28;19963;-69
2022/08/09 08:38:04;;;;;;;;;;;;;;;20.85;48.78;101535.66;5092098;28;19923;-69
2022/08/09 08:45:04;;;;;;;;;;;;;;;20.98;48.44;101531.03;5089618;28;19965;-69
2022/08/09 08:48:08;;;;;;;;;;;;;;;21.30;48.29;101530.25;5089452;28;20246;-69
2022/08/09 08:51:15;;;;;;;;;;;;;;;21.23;48.01;101539.72;5089083;28;19923;-70
2022/08/09 08:54:19;;;;;;;;;;;;;;;21.49;47.27;101532.28;5077530;28;19970;-70
2022/08/09 08:57:23;;;;;;;;;;;;;;;21.74;46.63;101536.41;5089875;28;19941;-71
2022/08/09 09:00:27;;;;;;;;;;;;;;;21.64;46.64;101527.50;5090162;28;19918;-70
2022/08/09 09:03:33;;;;;;;;;;;;;;;21.86;45.77;101531.84;5090924;28;19927;-70
2022/08/09 09:06:37;;;;;;;;;;;;;;;22.08;44.66;101526.44;5090854;28;20422;-70
2022/08/09 09:09:44;;;;;;;;;;;;;;;22.00;45.23;101528.91;5090697;28;20011;-66
2022/08/09 09:12:48;;;;;;;;;;;;;;;22.10;45.83;101531.63;5089941;28;19919;-66
2022/08/09 09:15:52;;;;;;;;;;;;;;;22.03;46.02;101531.31;5089748;28;19931;-66
2022/08/09 09:19:01;;;;;;;;;;;;;;;22.06;45.83;101528.38;5077823;28;20312;-66
2022/08/09 09:22:04;;;;;;;;;;;;;;;22.23;44.51;101529.63;5089280;28;20189;-67
2022/08/09 09:25:09;;;;;;;;;;;;;;;22.47;43.96;101532.84;5089708;28;20029;-68
2022/08/09 09:28:13;;;;;;;;;;;;;;;22.55;43.71;101534.00;5089588;28;19927;-68
2022/08/09 09:31:18;;;;;;;;;;;;;;;22.84;43.28;101526.94;5090215;28;19911;-68
2022/08/09 09:34:22;;;;;;;;;;;;;;;22.86;43.19;101526.81;5090250;28;20296;-67
2022/08/09 09:37:28;;;;;;;;;;;;;;;22.82;43.64;101520.09;5089732;28;20487;-67
2022/08/09 09:40:41;;;;;;;;;;;;;;;22.99;43.07;101516.78;5090497;28;19919;-68
2022/08/09 09:43:44;;;;;;;;;;;;;;;23.27;41.83;101519.66;5089839;28;19969;-68
2022/08/09 09:46:47;;;;;;;;;;;;;;;23.41;41.53;101516.56;5089077;28;19918;-68
2022/08/09 09:49:51;;;;;;;;;;;;;;;23.46;40.80;101502.81;5089352;28;20418;-68
2022/08/09 09:52:54;;;;;;;;;;;;;;;23.21;42.27;101500.53;5088703;28;19957;-66
2022/08/09 09:56:00;;;;;;;;;;;;;;;23.48;41.97;101503.50;5089184;28;19923;-69
2022/08/09 09:59:03;;;;;;;;;;;;;;;23.51;41.53;101506.72;5090433;28;19966;-67
2022/08/09 10:02:07;;;;;;;;;;;;;;;23.64;42.67;101501.97;5089453;28;19919;-75
2022/08/09 10:05:10;;;;;;;;;;;;;;;24.02;41.47;101504.72;5088695;28;19919;-66
2022/08/09 10:08:13;;;;;;;;;;;;;;;23.83;39.67;101505.59;5089503;28;20007;-66
2022/08/09 10:11:16;;;;;;;;;;;;;;;23.99;40.47;101499.69;5088848;28;19919;-66
2022/08/09 10:14:21;;;;;;;;;;;;;;;23.90;41.39;101510.25;5089547;28;19970;-66
2022/08/09 10:17:30;;;;;;;;;;;;;;;24.22;41.04;101505.53;5089078;28;19965;-65
2022/08/09 10:20:33;;;;;;;;;;;;;;;24.44;38.60;101505.22;5089221;28;19923;-65
2022/08/09 10:23:37;;;;;;;;;;;;;;;24.08;37.47;101498.81;5087153;28;19923;-66
2022/08/09 10:26:42;;;;;;;;;;;;;;;24.06;38.81;101492.78;5088538;28;20316;-67
2022/08/09 10:29:45;;;;;;;;;;;;;;;24.74;37.36;101490.72;5089328;28;20285;-65
2022/08/09 10:32:47;;;;;;;;;;;;;;;24.53;38.10;101484.75;5087948;28;19918;-65
2022/08/09 10:35:51;;;;;;;;;;;;;;;24.52;37.81;101485.75;5089776;28;20313;-64
2022/08/09 10:38:55;;;;;;;;;;;;;;;24.86;36.18;101477.16;5088372;28;19996;-64
2022/08/09 10:41:58;;;;;;;;;;;;;;;24.90;36.19;101473.16;5086756;28;19973;-65
2022/08/09 10:45:06;;;;;;;;;;;;;;;24.78;35.58;101476.03;5087206;28;19954;-66
2022/08/09 10:48:19;;;;;;;;;;;;;;;24.75;35.97;101471.00;5088734;28;19918;-66
2022/08/09 10:51:35;;;;;;;;;;;;;;;24.56;35.89;101466.59;5087636;28;19919;-67
2022/08/09 10:54:40;;;;;;;;;;;;;;;24.51;36.91;101465.38;5089274;28;19923;-66
2022/08/09 10:57:43;;;;;;;;;;;;;;;24.75;35.51;101462.13;5088206;28;19984;-66
2022/08/09 11:00:46;;;;;;;;;;;;;;;25.05;35.09;101460.97;5087231;28;19919;-66
2022/08/09 11:04:22;;;;;;;;;;;;;;;25.23;33.15;101464.50;5088447;28;19919;-66
2022/08/09 11:07:26;;;;;;;;;;;;;;;25.68;33.51;101468.88;5065072;28;19919;-65
2022/08/09 11:10:42;;;;;;;;;;;;;;;25.84;33.57;101464.69;5089911;28;20430;-66
2022/08/09 11:13:45;;;;;;;;;;;;;;;25.87;31.82;101461.69;5089062;28;19919;-65
2022/08/09 11:16:56;;;;;;;;;;;;;;;25.80;32.39;101460.59;5089577;28;19923;-66
2022/08/09 11:20:11;;;;;;;;;;;;;;;25.49;32.99;101450.31;5089220;28;19957;-67
2022/08/09 11:23:14;;;;;;;;;;;;;;;25.33;33.51;101464.41;5088797;28;19961;-66
2022/08/09 11:26:38;;;;;;;;;;;;;;;25.71;31.67;101470.41;5088809;28;19923;-66
2022/08/09 11:29:50;;;;;;;;;;;;;;;25.88;30.58;101458.88;5088977;28;19946;-66
2022/08/09 11:32:53;;;;;;;;;;;;;;;25.77;30.78;101466.28;5089618;28;19922;-67
2022/08/09 11:35:58;;;;;;;;;;;;;;;26.04;31.54;101468.84;5088346;28;19919;-66
2022/08/09 11:39:03;;;;;;;;;;;;;;;26.49;29.75;101453.53;5089002;28;20673;-66
2022/08/09 11:42:10;;;;;;;;;;;;;;;26.35;30.33;101454.91;5088430;28;20391;-67
2022/08/09 11:45:27;;;;;;;;;;;;;;;26.50;29.24;101445.28;5088651;28;19957;-66
2022/08/09 11:48:32;;;;;;;;;;;;;;;26.35;30.67;101453.06;5089077;28;19927;-66
2022/08/09 11:51:55;;;;;;;;;;;;;;;26.24;30.52;101452.53;5087787;28;19994;-67
2022/08/09 11:55:18;;;;;;;;;;;;;;;26.17;29.85;101453.16;5089438;28;19957;-66
2022/08/09 11:58:22;;;;;;;;;;;;;;;26.33;29.87;101446.22;5088237;28;19923;-67
2022/08/09 12:01:35;;;;;;;;;;;;;;;26.19;29.53;101444.94;5088695;28;19919;-66
2022/08/09 12:04:39;;;;;;;;;;;;;;;26.08;30.73;101445.25;5091241;28;19919;-66
2022/08/09 12:07:42;;;;;;;;;;;;;;;26.29;31.22;101434.09;5092422;28;19945;-66
2022/08/09 12:10:47;;;;;;;;;;;;;;;27.02;28.26;101437.03;5093166;28;20288;-66
2022/08/09 12:13:51;;;;;;;;;;;;;;;27.13;28.11;101417.09;5092929;28;19937;-66
2022/08/09 12:16:55;;;;;;;;;;;;;;;26.62;29.82;101430.59;5092815;28;20481;-67
2022/08/09 12:19:59;;;;;;;;;;;;;;;26.48;30.58;101428.50;5092996;28;19919;-66
2022/08/09 12:23:02;;;;;;;;;;;;;;;26.78;30.56;101412.88;5092125;28;19922;-66
2022/08/09 12:26:05;;;;;;;;;;;;;;;26.98;28.71;101427.63;5092353;28;20323;-66
2022/08/09 12:29:13;;;;;;;;;;;;;;;27.22;28.81;101410.75;5092152;28;19919;-67
2022/08/09 12:32:23;;;;;;;;;;;;;;;27.24;29.15;101413.25;5092077;28;20345;-65
2022/08/09 12:35:26;;;;;;;;;;;;;;;27.38;28.73;101414.44;5092711;28;19919;-66
2022/08/09 12:38:33;;;;;;;;;;;;;;;27.50;28.91;101402.34;5092607;28;19970;-66
2022/08/09 12:41:37;;;;;;;;;;;;;;;27.66;28.27;101404.16;5092017;28;19969;-66
2022/08/09 12:44:41;;;;;;;;;;;;;;;27.69;29.10;101401.97;5091641;28;19935;-66
2022/08/09 12:47:44;;;;;;;;;;;;;;;28.08;27.67;101395.00;5091152;28;19919;-67
2022/08/09 12:50:49;;;;;;;;;;;;;;;28.33;26.60;101398.44;5091664;28;19935;-66
2022/08/09 12:53:59;;;;;;;;;;;;;;;28.37;27.19;101389.84;5091722;28;20350;-64
2022/08/09 12:57:03;;;;;;;;;;;;;;;28.61;26.54;101390.75;5079051;28;20404;-66
2022/08/09 13:00:17;;;;;;;;;;;;;;;28.54;26.76;101385.25;5090891;28;19962;-65
2022/08/09 13:03:26;;;;;;;;;;;;;;;28.95;25.66;101385.81;5090076;28;19922;-66
2022/08/09 13:06:32;;;;;;;;;;;;;;;29.20;26.17;101383.78;5091137;28;19963;-67
2022/08/09 13:09:35;;;;;;;;;;;;;;;29.02;26.85;101383.25;5089964;28;19919;-66
2022/08/09 13:12:46;;;;;;;;;;;;;;;29.69;25.17;101389.75;5090563;28;19918;-66
2022/08/09 13:15:51;;;;;;;;;;;;;;;29.87;24.57;101382.97;5089402;28;19992;-66
2022/08/09 13:18:54;;;;;;;;;;;;;;;30.01;25.14;101378.59;5090849;28;19923;-67
2022/08/09 13:22:16;;;;;;;;;;;;;;;30.22;24.19;101382.41;5089471;28;19919;-64
2022/08/09 13:25:21;;;;;;;;;;;;;;;30.43;24.12;101379.75;5089918;28;19969;-65
2022/08/09 13:28:25;;;;;;;;;;;;;;;30.12;23.86;101379.94;5090037;28;20018;-64
2022/08/09 13:31:30;;;;;;;;;;;;;;;30.66;24.54;101366.06;5090071;28;20388;-63
2022/08/09 13:34:35;;;;;;;;;;;;;;;31.19;23.79;101366.59;5090658;28;20418;-63
2022/08/09 13:37:39;;;;;;;;;;;;;;;31.49;22.67;101358.31;5109719;27;20415;-65
2022/08/09 13:41:03;;;;;;;;;;;;;;;32.23;21.69;101356.84;5120895;27;19983;-65
2022/08/09 13:44:07;;;;;;;;;;;;;;;32.51;21.48;101354.06;5131950;27;19921;-63
2022/08/09 13:47:16;;;;;;;;;;;;;;;33.24;21.39;101351.41;5120081;27;19918;-64
2022/08/09 13:50:20;;;;;;;;;;;;;;;32.12;21.17;101350.16;5120076;27;19926;-64
2022/08/09 13:53:23;;;;;;;;;;;;;;;33.92;19.48;101351.94;5090665;28;20610;-65
2022/08/09 13:56:25;;;;;;;;;;;;;;;34.42;18.79;101351.28;5090165;28;20007;-65
2022/08/09 13:59:28;;;;;;;;;;;;;;;35.51;17.49;101338.31;5102230;28;20427;-65
2022/08/09 14:02:38;;;;;;;;;;;;;;;37.28;16.47;101328.94;5111042;28;20060;-66
2022/08/09 14:06:01;;;;;;;;;;;;;;;39.48;14.27;101323.72;5110767;28;19933;-66
2022/08/09 14:12:35;;;;;;;;;;;;;;;42.31;11.54;101319.28;5116996;27;19956;-67
2022/08/09 14:15:38;;;;;;;;;;;;;;;41.71;11.93;101330.66;5127855;27;20010;-65
2022/08/09 14:22:12;;;;;;;;;;;;;;;40.68;12.87;101325.59;5130534;27;19918;-65
2022/08/09 14:25:15;;;;;;;;;;;;;;;40.89;11.90;101327.41;5130600;27;19922;-65
2022/08/09 14:28:22;;;;;;;;;;;;;;;40.65;12.17;101332.44;5131342;27;19964;-66
2022/08/09 14:31:25;;;;;;;;;;;;;;;41.61;12.26;101322.34;5112135;27;20442;-64
2022/08/09 14:34:28;;;;;;;;;;;;;;;41.20;12.16;101322.16;5110953;28;19938;-65
2022/08/09 14:37:31;;;;;;;;;;;;;;;41.81;12.07;101322.44;5110421;28;19922;-65
2022/08/09 14:40:34;;;;;;;;;;;;;;;42.23;11.04;101318.69;5110222;28;20468;-64
2022/08/09 14:43:37;;;;;;;;;;;;;;;43.15;11.27;101307.72;5109554;28;19961;-65
2022/08/09 14:46:40;;;;;;;;;;;;;;;42.63;10.58;101305.25;5109892;28;19918;-67
2022/08/09 14:49:43;;;;;;;;;;;;;;;42.73;10.72;101306.13;5110356;28;20009;-64
2022/08/09 14:52:47;;;;;;;;;;;;;;;42.84;10.93;101311.59;5110141;28;20304;-65
2022/08/09 14:55:50;;;;;;;;;;;;;;;38.04;14.71;101305.19;5110396;28;20052;-65
2022/08/09 14:58:53;;;;;;;;;;;;;;;38.13;14.33;101303.69;5109957;28;19964;-65
2022/08/09 15:01:57;;;;;;;;;;;;;;;40.87;12.00;101310.38;5109575;28;19922;-66
2022/08/09 15:05:00;;;;;;;;;;;;;;;40.25;12.43;101305.47;5110100;28;20056;-65
2022/08/09 15:08:04;;;;;;;;;;;;;;;40.76;12.38;101307.84;5110305;28;19919;-66
2022/08/09 15:11:07;;;;;;;;;;;;;;;39.93;13.20;101303.47;5109951;28;19968;-65
2022/08/09 15:14:10;;;;;;;;;;;;;;;40.51;12.93;101287.31;5109831;28;19919;-65
2022/08/09 15:17:13;;;;;;;;;;;;;;;42.40;11.53;101290.16;5109508;28;19961;-65
2022/08/09 15:20:16;;;;;;;;;;;;;;;42.33;11.97;101306.91;5110018;28;19943;-69
2022/08/09 15:23:19;;;;;;;;;;;;;;;40.49;13.04;101283.19;5129748;27;19918;-65
2022/08/09 15:26:22;;;;;;;;;;;;;;;40.64;12.76;101286.09;5130193;27;19937;-65
2022/08/09 15:29:30;;;;;;;;;;;;;;;39.21;12.99;101279.81;5089604;28;19927;-65
2022/08/09 15:32:33;;;;;;;;;;;;;;;40.20;13.11;101278.00;5089384;28;19915;-65
2022/08/09 15:35:36;;;;;;;;;;;;;;;41.60;12.38;101282.28;5089328;28;20006;-65
2022/08/09 15:38:39;;;;;;;;;;;;;;;40.74;12.79;101280.66;5093710;28;19922;-64
2022/08/09 15:41:43;;;;;;;;;;;;;;;38.02;14.94;101280.84;5095492;28;19919;-66
2022/08/09 15:44:46;;;;;;;;;;;;;;;39.52;13.87;101270.13;5096062;28;19918;-66
2022/08/09 15:47:50;;;;;;;;;;;;;;;39.20;14.69;101272.69;5121047;27;19918;-65
2022/08/09 15:50:54;;;;;;;;;;;;;;;39.52;14.04;101261.91;5116337;27;20004;-65
2022/08/09 15:53:57;;;;;;;;;;;;;;;40.55;12.68;101260.22;5115653;27;20447;-65
2022/08/09 15:57:00;;;;;;;;;;;;;;;40.71;12.68;101264.75;5115730;28;19922;-65
2022/08/09 16:00:09;;;;;;;;;;;;;;;39.28;13.90;101249.56;5115886;28;20414;-65